Pella, Idaho
Current Conditions -  °F | °C
As of 12:53 PM on Saturday 25 Oct 2014 (Local Time) from KBYI Reporting Station
Clear Clear  
Wind Chill: 75°   Ceiling: Unl
Heat Index: 75°   Visibility: 10mi
Dew Point: 32°   Wind: 21mph
Humidity: 21%   Direction: 210°SSW
Pressure: 29.9"   Gusts: 33mph
Location:  42.5011°N, 113.814°W
Report Text: KBYI 251853Z AUTO 21018G29KT 10SM CLR 24/00 A2990 RMK AO2 PK WND 19029/1846 SLP097 T02390000
Loading
Personal Weather Stations






























Interactive Weather Map New forecast layout! Learn more

10-Day Weather Forecast

Advertisements
Track Severe Weather on mobile